Bright Pegasus — 3FJQ4 — position and weather

sailwx.info

Track history (hours):
 
Tides and Currents Weather Stations Pressure Air Temp Water Temp Dewpoint Dewpoint Depression Visibility Wind Speed Wind Dir Waves Ship Positions

Bright Pegasus

Last reported at 2017-Dec-10 14:50 UTC. Time now 2017-Dec-13 16:57 UTC.
Position N 01°16' E 104°04'.

Length 229 m; draft 13.5 m.

Type: Ship. MMSI: 352971000.

Date/timePositionNaut miles runAvg speedWind from/ knotsBaromVisibWave heightAir tempDewpointWater temp
2017-Dec-10 14:50N 01°16' E 104°04'6 0.5
2017-Dec-10 03:57N 01°16' E 103°58'2 3.8
2017-Dec-10 03:30N 01°15' E 103°57'3 5.4
2017-Dec-10 03:01N 01°13' E 103°55'4 7.9
2017-Dec-10 02:30N 01°11' E 103°52'2 4.9
2017-Dec-10 02:00N 01°10' E 103°49'1 2.6
2017-Dec-10 01:30N 01°10' E 103°48'1 2.8
2017-Dec-10 01:01N 01°09' E 103°47'1 2.3
2017-Dec-10 00:31N 01°08' E 103°46'1 1.6
2017-Dec-10 00:00N 01°08' E 103°46'1 1.9
2017-Dec-09 23:29N 01°07' E 103°45'1 2.2
2017-Dec-09 23:01N 01°06' E 103°44'3 5.8
2017-Dec-09 22:31N 01°05' E 103°42'510.3
2017-Dec-09 22:00N 01°04' E 103°37'713.2
2017-Dec-09 21:29N 01°07' E 103°30'713.2
2017-Dec-09 20:59N 01°11' E 103°25'  
Track history (hours):
 
Tides and Currents Weather Stations Pressure Air Temp Water Temp Dewpoint Dewpoint Depression Visibility Wind Speed Wind Dir Waves Ship Positions

Bright Pegasus

Last reported at 2017-Dec-10 14:50 UTC. Time now 2017-Dec-13 16:57 UTC.
Position N 01°16' E 104°04'.

Length 229 m; draft 13.5 m.

Type: Ship. MMSI: 352971000.

Date/timePositionNaut miles runAvg speedWind from/ knotsBaromVisibWave heightAir tempDewpointWater temp
2017-Dec-10 14:50N 01°16' E 104°04'6 0.5
2017-Dec-10 03:57N 01°16' E 103°58'2 3.8
2017-Dec-10 03:30N 01°15' E 103°57'3 5.4
2017-Dec-10 03:01N 01°13' E 103°55'4 7.9
2017-Dec-10 02:30N 01°11' E 103°52'2 4.9
2017-Dec-10 02:00N 01°10' E 103°49'1 2.6
2017-Dec-10 01:30N 01°10' E 103°48'1 2.8
2017-Dec-10 01:01N 01°09' E 103°47'1 2.3
2017-Dec-10 00:31N 01°08' E 103°46'1 1.6
2017-Dec-10 00:00N 01°08' E 103°46'1 1.9
2017-Dec-09 23:29N 01°07' E 103°45'1 2.2
2017-Dec-09 23:01N 01°06' E 103°44'3 5.8
2017-Dec-09 22:31N 01°05' E 103°42'510.3
2017-Dec-09 22:00N 01°04' E 103°37'713.2
2017-Dec-09 21:29N 01°07' E 103°30'713.2
2017-Dec-09 20:59N 01°11' E 103°25'  

Dump ship's entire track history